Arlington, Colorado
Current Conditions -  °F | °C
As of 9:53 PM on Sunday 19 Oct 2014 (Local Time) from KLHX Reporting Station
Clear Clear  
Wind Chill: 54°   Ceiling: Unl
Heat Index: 54°   Visibility: 10mi
Dew Point: 43°   Wind: 7mph
Humidity: 66%   Direction: 50°NE
Pressure: 30.1"   Gusts: NA
Location:  38.34°N, 103.34°W
Report Text: KLHX 200353Z AUTO 05006KT 10SM CLR 12/06 A3010 RMK AO2 SLP160 T01220061
Loading
Personal Weather Stations






























Interactive Weather Map
Tropical Storm Tracking
New forecast layout! Learn more

10-Day Weather Forecast

Advertisements
Track Severe Weather on mobile